Dorrance, Kansas
Current Conditions -  °F | °C
As of 6:53 PM on Saturday 20 Dec 2014 (Local Time) from KRSL Reporting Station
Clear Clear  
Wind Chill: 34°   Ceiling: Unl
Heat Index: 40°   Visibility: 10mi
Dew Point: 38°   Wind: 9mph
Humidity: 93%   Direction: 180°S
Pressure: 30.01"   Gusts: NA
Location:  38.85°N, 98.59°W
Report Text: KRSL 210053Z AUTO 18008KT 10SM CLR 04/03 A3001 RMK AO2 SLP178 T00440033
Loading
Personal Weather Stations






























Interactive Weather Map New forecast layout! Learn more

10-Day Weather Forecast

Advertisements
Track Severe Weather on mobile